createdAt,value
2018-01-22T00:00:48.138Z,1.57
2018-01-22T00:03:16.565Z,1.56
2018-01-22T00:05:45.003Z,1.55
2018-01-22T00:08:13.474Z,1.58
2018-01-22T00:10:41.913Z,1.54
2018-01-22T00:13:10.361Z,1.58
2018-01-22T00:15:38.814Z,1.54
2018-01-22T00:18:07.227Z,1.61
2018-01-22T00:20:35.613Z,1.63
2018-01-22T00:23:04.043Z,1.56
2018-01-22T00:25:32.478Z,1.61
2018-01-22T00:28:00.879Z,1.58
2018-01-22T00:30:29.329Z,1.49
2018-01-22T00:32:57.758Z,1.51
2018-01-22T00:35:26.175Z,1.48
2018-01-22T00:37:54.658Z,1.56
2018-01-22T00:40:23.077Z,1.58
2018-01-22T00:42:51.489Z,1.58
2018-01-22T00:45:19.929Z,1.68
2018-01-22T00:47:48.352Z,1.68
2018-01-22T00:50:16.774Z,1.73
2018-01-22T00:52:45.253Z,1.78
2018-01-22T00:55:13.661Z,1.81
2018-01-22T00:57:42.073Z,1.77
2018-01-22T01:00:11.429Z,1.84
2018-01-22T01:02:39.845Z,1.80
2018-01-22T01:05:08.278Z,1.80
2018-01-22T01:07:36.749Z,1.77
2018-01-22T01:10:05.140Z,1.82
2018-01-22T01:12:33.555Z,1.80
2018-01-22T01:15:01.980Z,1.64
2018-01-22T01:17:30.366Z,1.64
2018-01-22T01:19:58.781Z,1.64
2018-01-22T01:22:27.278Z,1.61
2018-01-22T01:24:55.705Z,1.60
2018-01-22T01:27:24.138Z,1.57
2018-01-22T01:29:52.601Z,1.58
2018-01-22T01:32:21.018Z,1.56
2018-01-22T01:34:49.414Z,1.56
2018-01-22T01:37:17.865Z,1.58
2018-01-22T01:39:46.289Z,1.60
2018-01-22T01:42:14.677Z,1.60
2018-01-22T01:44:43.117Z,1.61
2018-01-22T01:47:11.507Z,1.64
2018-01-22T01:49:39.938Z,1.58
2018-01-22T01:52:08.403Z,1.65
2018-01-22T01:54:36.806Z,1.64
2018-01-22T01:57:05.209Z,1.64
2018-01-22T01:59:33.642Z,1.66
2018-01-22T02:02:02.048Z,1.58
2018-01-22T02:04:30.469Z,1.58
2018-01-22T02:06:58.930Z,1.69
2018-01-22T02:09:32.163Z,1.69
2018-01-22T02:12:00.625Z,1.71
2018-01-22T02:14:29.057Z,1.72
2018-01-22T02:16:57.494Z,1.73
2018-01-22T02:19:25.959Z,1.77
2018-01-22T02:21:54.357Z,1.75
2018-01-22T02:24:22.774Z,1.69
2018-01-22T02:26:51.198Z,1.73
2018-01-22T02:29:19.585Z,1.79
2018-01-22T02:31:48.043Z,1.78
2018-01-22T02:34:16.512Z,1.66
2018-01-22T02:36:44.889Z,1.73
2018-01-22T02:39:13.285Z,1.73
2018-01-22T02:41:41.750Z,1.80
2018-01-22T02:44:10.141Z,1.79
2018-01-22T02:46:38.597Z,1.79
2018-01-22T02:49:07.045Z,1.73
2018-01-22T02:51:35.771Z,1.80
2018-01-22T02:54:04.215Z,1.81
2018-01-22T02:56:32.693Z,1.91
2018-01-22T02:59:01.126Z,1.87
2018-01-22T03:01:29.564Z,1.84
2018-01-22T03:03:58.018Z,1.73
2018-01-22T03:06:26.408Z,1.79
2018-01-22T03:08:54.842Z,1.83
2018-01-22T03:11:23.335Z,1.78
2018-01-22T03:13:51.726Z,1.80
2018-01-22T03:16:20.154Z,1.80
2018-01-22T03:18:48.638Z,1.78
2018-01-22T03:21:17.084Z,1.79
2018-01-22T03:23:45.517Z,1.79
2018-01-22T03:26:13.961Z,1.79
2018-01-22T03:28:42.354Z,1.80
2018-01-22T03:31:10.796Z,1.89
2018-01-22T03:33:39.262Z,1.83
2018-01-22T03:36:07.687Z,1.81
2018-01-22T03:38:36.107Z,1.92
2018-01-22T03:41:04.582Z,1.83
2018-01-22T03:43:32.969Z,1.79
2018-01-22T03:46:01.358Z,1.87
2018-01-22T03:48:29.815Z,1.86
2018-01-22T03:50:58.243Z,1.83
2018-01-22T03:53:26.630Z,1.84
2018-01-22T03:55:55.054Z,1.77
2018-01-22T03:58:23.444Z,1.80
2018-01-22T04:00:51.855Z,1.80
2018-01-22T04:03:20.334Z,1.80
2018-01-22T04:05:48.731Z,1.79
2018-01-22T04:08:17.146Z,1.72
2018-01-22T04:10:45.625Z,1.77
2018-01-22T04:13:14.026Z,1.74
2018-01-22T04:15:42.426Z,1.75
2018-01-22T04:18:11.806Z,1.74
2018-01-22T04:20:40.194Z,1.74
2018-01-22T04:23:08.605Z,1.76
2018-01-22T04:25:37.056Z,1.75
2018-01-22T04:28:05.481Z,1.77
2018-01-22T04:30:33.863Z,1.80
2018-01-22T04:33:02.319Z,1.76
2018-01-22T04:35:30.741Z,1.79
2018-01-22T04:37:59.129Z,1.77
2018-01-22T04:40:27.573Z,1.78
2018-01-22T04:42:56.002Z,1.83
2018-01-22T04:45:24.471Z,1.80
2018-01-22T04:47:52.927Z,1.88
2018-01-22T04:50:21.331Z,1.83
2018-01-22T04:52:49.761Z,1.87
2018-01-22T04:55:18.262Z,1.82
2018-01-22T04:57:46.662Z,1.82
2018-01-22T05:00:15.083Z,1.83
2018-01-22T05:02:43.521Z,1.90
2018-01-22T05:05:11.927Z,1.91
2018-01-22T05:07:40.351Z,1.89
2018-01-22T05:10:08.789Z,1.89
2018-01-22T05:12:37.222Z,1.90
2018-01-22T05:15:05.645Z,1.91
2018-01-22T05:17:34.067Z,1.89
2018-01-22T05:20:02.831Z,1.91
2018-01-22T05:22:31.253Z,1.93
2018-01-22T05:24:59.693Z,1.87
2018-01-22T05:27:28.086Z,1.84
2018-01-22T05:29:56.499Z,1.85
2018-01-22T05:32:24.957Z,1.91
2018-01-22T05:34:53.340Z,1.94
2018-01-22T05:37:21.776Z,1.91
2018-01-22T05:39:50.214Z,1.94
2018-01-22T05:42:18.652Z,1.94
2018-01-22T05:44:47.093Z,1.92
2018-01-22T05:47:15.575Z,1.95
2018-01-22T05:49:43.962Z,1.96
2018-01-22T05:52:12.386Z,1.88
2018-01-22T05:54:40.838Z,1.91
2018-01-22T05:57:09.270Z,1.87
2018-01-22T05:59:37.697Z,1.90
2018-01-22T06:02:13.028Z,1.90
2018-01-22T06:04:41.480Z,1.85
2018-01-22T06:07:09.928Z,1.83
2018-01-22T06:09:38.397Z,1.87
2018-01-22T06:12:06.828Z,1.89
2018-01-22T06:14:35.247Z,1.94
2018-01-22T06:17:03.686Z,1.95
2018-01-22T06:19:32.122Z,1.91
2018-01-22T06:22:00.562Z,1.96
2018-01-22T06:24:29.044Z,1.84
2018-01-22T06:26:57.473Z,1.87
2018-01-22T06:29:25.932Z,1.84
2018-01-22T06:31:54.411Z,1.86
2018-01-22T06:34:22.807Z,1.75
2018-01-22T06:36:51.231Z,1.79
2018-01-22T06:39:19.702Z,1.80
2018-01-22T06:41:48.130Z,1.66
2018-01-22T06:44:16.549Z,1.71
2018-01-22T06:46:45.008Z,1.72
2018-01-22T06:49:13.408Z,1.72
2018-01-22T06:51:41.786Z,1.69
2018-01-22T06:54:10.272Z,1.64
2018-01-22T06:56:38.720Z,1.65
2018-01-22T06:59:07.151Z,1.66
2018-01-22T07:01:35.581Z,1.68
2018-01-22T07:04:03.979Z,1.71
2018-01-22T07:06:32.366Z,1.68
2018-01-22T07:09:00.851Z,1.66
2018-01-22T07:11:29.310Z,1.62
2018-01-22T07:13:57.731Z,1.62
2018-01-22T07:16:26.196Z,1.62
2018-01-22T07:18:54.615Z,1.61
2018-01-22T07:21:23.033Z,1.62
2018-01-22T07:23:51.507Z,1.58
2018-01-22T07:26:19.923Z,1.64
2018-01-22T07:28:48.319Z,1.66
2018-01-22T07:31:16.865Z,1.66
2018-01-22T07:33:45.278Z,1.57
2018-01-22T07:36:13.694Z,1.59
2018-01-22T07:38:42.127Z,1.60
2018-01-22T07:41:10.515Z,1.56
2018-01-22T07:43:38.897Z,1.61
2018-01-22T07:46:07.328Z,1.61
2018-01-22T07:48:35.742Z,1.60
2018-01-22T07:51:04.133Z,1.63
2018-01-22T07:53:32.594Z,1.61
2018-01-22T07:56:01.003Z,1.63
2018-01-22T07:58:29.416Z,1.63
2018-01-22T08:00:57.872Z,1.65
2018-01-22T08:03:26.259Z,1.68
2018-01-22T08:05:54.698Z,1.70
2018-01-22T08:08:23.137Z,1.69
2018-01-22T08:10:51.519Z,1.66
2018-01-22T08:13:19.896Z,1.68
2018-01-22T08:15:48.352Z,1.69
2018-01-22T08:18:16.802Z,1.69
2018-01-22T08:20:45.220Z,1.69
2018-01-22T08:23:13.686Z,1.73
2018-01-22T08:25:42.069Z,1.74
2018-01-22T08:28:10.450Z,1.79
2018-01-22T08:30:38.908Z,1.84
2018-01-22T08:33:07.314Z,1.82
2018-01-22T08:35:35.706Z,1.86
2018-01-22T08:38:04.148Z,1.87
2018-01-22T08:40:32.529Z,1.88
2018-01-22T08:43:00.935Z,1.72
2018-01-22T08:45:29.399Z,1.79
2018-01-22T08:47:57.809Z,1.81
2018-01-22T08:50:26.189Z,1.80
2018-01-22T08:52:54.681Z,1.83
2018-01-22T08:55:23.102Z,1.77
2018-01-22T08:57:51.512Z,1.76
2018-01-22T09:00:19.959Z,1.80
2018-01-22T09:02:48.371Z,1.79
2018-01-22T09:05:16.782Z,1.75
2018-01-22T09:07:45.506Z,1.80
2018-01-22T09:10:13.882Z,1.83
2018-01-22T09:12:42.262Z,1.78
2018-01-22T09:15:10.701Z,1.77
2018-01-22T09:17:39.090Z,1.78
2018-01-22T09:20:07.490Z,1.69
2018-01-22T09:22:35.918Z,1.74
2018-01-22T09:25:04.289Z,1.79
2018-01-22T09:27:32.681Z,1.77
2018-01-22T09:30:01.127Z,1.77
2018-01-22T09:32:29.550Z,1.79
2018-01-22T09:34:57.945Z,1.83
2018-01-22T09:37:26.397Z,1.82
2018-01-22T09:39:54.809Z,1.75
2018-01-22T09:42:23.238Z,1.83
2018-01-22T09:44:51.700Z,1.88
2018-01-22T09:47:20.094Z,1.85
2018-01-22T09:49:48.478Z,1.91
2018-01-22T09:52:16.942Z,1.85
2018-01-22T09:54:45.372Z,1.83
2018-01-22T09:57:13.765Z,1.70
2018-01-22T09:59:42.188Z,1.70
2018-01-22T10:02:10.557Z,1.78
2018-01-22T10:04:38.959Z,1.75
2018-01-22T10:07:07.436Z,1.73
2018-01-22T10:09:35.813Z,1.65
2018-01-22T10:12:04.219Z,1.75
2018-01-22T10:14:32.640Z,1.72
2018-01-22T10:17:01.055Z,1.65
2018-01-22T10:19:29.462Z,1.67
2018-01-22T10:21:57.907Z,1.70
2018-01-22T10:24:26.342Z,1.73
2018-01-22T10:26:54.729Z,1.71
2018-01-22T10:29:23.168Z,1.75
2018-01-22T10:31:51.543Z,1.64
2018-01-22T10:34:19.930Z,1.65
2018-01-22T10:36:48.382Z,1.75
2018-01-22T10:39:16.761Z,1.72
2018-01-22T10:41:45.142Z,1.79
2018-01-22T10:44:13.564Z,1.80
2018-01-22T10:46:41.983Z,1.78
2018-01-22T10:49:10.410Z,1.81
2018-01-22T10:51:38.863Z,1.81
2018-01-22T10:54:07.246Z,1.82
2018-01-22T10:56:35.653Z,1.79
2018-01-22T10:59:04.080Z,1.79
2018-01-22T11:01:32.485Z,1.75
2018-01-22T11:04:00.863Z,1.77
2018-01-22T11:06:29.335Z,1.85
2018-01-22T11:08:57.750Z,1.75
2018-01-22T11:11:26.165Z,1.68
2018-01-22T11:13:54.628Z,1.71
2018-01-22T11:16:23.020Z,1.72
2018-01-22T11:18:51.436Z,1.79
2018-01-22T11:21:19.895Z,1.84
2018-01-22T11:23:48.316Z,1.93
2018-01-22T11:26:16.719Z,1.94
2018-01-22T11:28:45.149Z,1.96
2018-01-22T11:31:13.534Z,1.87
2018-01-22T11:33:41.952Z,1.96
2018-01-22T11:36:10.405Z,2.03
2018-01-22T11:38:38.830Z,2.05
2018-01-22T11:41:07.245Z,2.03
2018-01-22T11:43:35.669Z,2.02
2018-01-22T11:46:04.091Z,1.96
2018-01-22T11:48:32.514Z,1.97
2018-01-22T11:51:00.995Z,2.02
2018-01-22T11:53:29.408Z,2.03
2018-01-22T11:55:57.816Z,2.05
2018-01-22T11:58:26.279Z,2.03
2018-01-22T12:00:54.670Z,2.05
2018-01-22T12:03:23.085Z,2.16
2018-01-22T12:05:51.651Z,2.11
2018-01-22T12:08:20.025Z,2.13
2018-01-22T12:10:48.406Z,2.08
2018-01-22T12:13:16.841Z,2.18
2018-01-22T12:15:45.908Z,-146.80
2018-01-22T12:18:14.337Z,-146.80
2018-01-22T12:20:42.794Z,-146.80
2018-01-22T12:23:11.239Z,-146.80
2018-01-22T12:25:39.709Z,-146.80
2018-01-22T12:28:08.181Z,-146.80
2018-01-22T12:30:36.635Z,-146.80
2018-01-22T12:33:05.059Z,-146.80
2018-01-22T12:35:33.551Z,-146.80
2018-01-22T12:38:02.009Z,-146.80
2018-01-22T12:40:30.455Z,-146.80
2018-01-22T12:42:59.858Z,-146.80
2018-01-22T12:45:28.258Z,-146.80
2018-01-22T12:47:56.699Z,-146.80
2018-01-22T12:50:25.145Z,-146.80
2018-01-22T12:52:53.594Z,-146.80
2018-01-22T12:55:22.018Z,-146.80
2018-01-22T12:57:50.490Z,-146.80
2018-01-22T13:00:18.906Z,-146.80
2018-01-22T13:02:47.340Z,-146.80
2018-01-22T13:05:15.983Z,-146.80
2018-01-22T13:07:44.398Z,-146.80
2018-01-22T13:10:12.810Z,-146.80
2018-01-22T13:12:41.287Z,-146.80
2018-01-22T13:15:09.726Z,-146.80
2018-01-22T13:17:38.144Z,-146.80
2018-01-22T13:20:06.642Z,-146.80
2018-01-22T13:22:35.075Z,-146.80
2018-01-22T13:25:03.525Z,-146.80
2018-01-22T13:27:32.018Z,-146.80
2018-01-22T13:30:00.442Z,-146.80
2018-01-22T13:32:28.846Z,-146.80
2018-01-22T13:34:57.336Z,-146.80
2018-01-22T13:37:25.741Z,-146.80
2018-01-22T13:39:59.691Z,-146.80
2018-01-22T13:42:28.102Z,-146.80
2018-01-22T13:44:56.509Z,-146.80
2018-01-22T13:47:24.982Z,-146.80
2018-01-22T13:49:53.409Z,-146.80
2018-01-22T13:52:21.838Z,-146.80
2018-01-22T13:54:50.334Z,-146.80
2018-01-22T13:57:18.775Z,-146.80
2018-01-22T13:59:47.217Z,-146.80
2018-01-22T14:02:15.674Z,-146.80
2018-01-22T14:04:44.098Z,-146.80
2018-01-22T14:07:12.540Z,-146.80
2018-01-22T14:09:40.997Z,-146.80
2018-01-22T14:12:09.439Z,-146.80
2018-01-22T14:14:37.898Z,-146.80
2018-01-22T14:17:06.369Z,-146.80
2018-01-22T14:19:34.817Z,-146.80
2018-01-22T14:22:03.268Z,-146.80
2018-01-22T14:24:32.051Z,-146.80
2018-01-22T14:27:00.491Z,-146.80
2018-01-22T14:29:28.909Z,-146.80
2018-01-22T14:31:57.374Z,-146.80
2018-01-22T14:34:25.806Z,-146.80
2018-01-22T14:36:54.226Z,-146.80
2018-01-22T14:39:22.668Z,-146.80
2018-01-22T14:41:51.077Z,-146.80
2018-01-22T14:44:19.514Z,-146.80
2018-01-22T14:46:47.974Z,-146.80
2018-01-22T14:49:16.381Z,-146.80
2018-01-22T14:51:44.807Z,-146.80
2018-01-22T14:54:13.254Z,-146.80
2018-01-22T14:56:41.660Z,-146.80
2018-01-22T14:59:10.084Z,-146.80
2018-01-22T15:01:38.582Z,-146.80
2018-01-22T15:04:07.033Z,-146.80
2018-01-22T15:06:35.482Z,-146.80
2018-01-22T15:09:04.034Z,-146.80
2018-01-22T15:11:32.475Z,-146.80
2018-01-22T15:14:00.877Z,-146.80
2018-01-22T15:16:29.343Z,-146.80
2018-01-22T15:18:57.759Z,-146.80
2018-01-22T15:21:26.174Z,-146.80
2018-01-22T15:23:54.646Z,-146.80
2018-01-22T15:26:23.082Z,-146.80
2018-01-22T15:28:51.568Z,-146.80
2018-01-22T15:31:20.016Z,-146.80
2018-01-22T15:33:48.451Z,-146.80
2018-01-22T15:36:16.865Z,-146.80
2018-01-22T15:38:45.335Z,-146.80
2018-01-22T15:41:13.745Z,-146.80
2018-01-22T15:43:42.216Z,-146.80
2018-01-22T15:46:10.856Z,-146.80
2018-01-22T15:48:39.266Z,-146.80
2018-01-22T15:51:07.708Z,-146.80
2018-01-22T15:53:36.210Z,-146.80
2018-01-22T15:56:04.622Z,-146.80
2018-01-22T15:58:33.066Z,-146.80
2018-01-22T16:01:01.550Z,-146.80
2018-01-22T16:03:30.035Z,-146.80
2018-01-22T16:05:58.477Z,-146.80
2018-01-22T16:08:26.961Z,-146.80
2018-01-22T16:10:55.377Z,-146.80
2018-01-22T16:13:23.819Z,-146.80
2018-01-22T16:15:52.308Z,-146.80
2018-01-22T16:18:20.752Z,-146.80
2018-01-22T16:20:49.195Z,-146.80
2018-01-22T16:23:17.646Z,-146.80
2018-01-22T16:25:46.088Z,-146.80
2018-01-22T16:28:14.547Z,-146.80
2018-01-22T16:30:43.186Z,-146.80
2018-01-22T16:33:11.626Z,-146.80
2018-01-22T16:35:40.079Z,-146.80
2018-01-22T16:38:08.556Z,-146.80
2018-01-22T16:40:36.985Z,-146.80
2018-01-22T16:43:05.421Z,-146.80
2018-01-22T16:45:33.947Z,-146.80
2018-01-22T16:48:02.375Z,-146.80
2018-01-22T16:50:30.814Z,-146.80
2018-01-22T16:52:59.314Z,-146.80
2018-01-22T16:55:27.758Z,-146.80
2018-01-22T16:57:56.184Z,-146.80
2018-01-22T17:00:24.676Z,-146.80
2018-01-22T17:02:53.097Z,-146.80
2018-01-22T17:05:21.546Z,-146.80
2018-01-22T17:07:50.009Z,-146.80
2018-01-22T17:10:18.422Z,-146.80
2018-01-22T17:12:46.835Z,-146.80
2018-01-22T17:15:15.326Z,-146.80
2018-01-22T17:17:43.781Z,-146.80
2018-01-22T17:20:12.232Z,-146.80
2018-01-22T17:22:40.689Z,-146.80
2018-01-22T17:25:26.769Z,4.37
2018-01-22T17:27:55.228Z,4.35
2018-01-22T17:30:23.650Z,4.34
2018-01-22T17:32:52.071Z,4.38
2018-01-22T17:35:20.545Z,4.34
2018-01-22T17:37:49.027Z,4.35
2018-01-22T17:40:17.447Z,4.34
2018-01-22T17:42:46.006Z,4.37
2018-01-22T17:45:14.422Z,4.36
2018-01-22T17:47:42.886Z,4.37
2018-01-22T17:50:11.362Z,4.38
2018-01-22T17:52:39.754Z,4.33
2018-01-22T17:55:08.137Z,4.39
2018-01-22T17:57:36.617Z,4.36
2018-01-22T18:00:06.013Z,4.34
2018-01-22T18:02:34.439Z,4.34
2018-01-22T18:05:02.907Z,4.33
2018-01-22T18:07:31.339Z,4.35
2018-01-22T18:09:59.766Z,4.39
2018-01-22T18:12:28.224Z,4.40
2018-01-22T18:14:56.643Z,4.41
2018-01-22T18:17:25.032Z,4.41
2018-01-22T18:19:53.477Z,4.44
2018-01-22T18:22:21.871Z,4.46
2018-01-22T18:24:50.256Z,4.52
2018-01-22T18:27:18.723Z,4.50
2018-01-22T18:29:47.126Z,4.55
2018-01-22T18:32:15.542Z,4.58
2018-01-22T18:34:44.110Z,4.68
2018-01-22T18:37:12.490Z,4.61
2018-01-22T18:39:40.905Z,4.60
2018-01-22T18:42:09.358Z,4.62
2018-01-22T18:44:37.757Z,4.67
2018-01-22T18:47:06.186Z,4.66
2018-01-22T18:49:34.638Z,4.72
2018-01-22T18:52:03.078Z,4.69
2018-01-22T18:54:31.465Z,4.70
2018-01-22T18:56:59.921Z,4.66
2018-01-22T18:59:28.335Z,4.77
2018-01-22T19:01:56.785Z,4.73
2018-01-22T19:04:25.258Z,4.70
2018-01-22T19:06:53.645Z,4.69
2018-01-22T19:09:22.062Z,4.68
2018-01-22T19:11:50.524Z,4.67
2018-01-22T19:14:18.919Z,4.73
2018-01-22T19:16:47.303Z,4.79
2018-01-22T19:19:15.743Z,4.83
2018-01-22T19:21:44.160Z,4.84
2018-01-22T19:24:12.570Z,4.86
2018-01-22T19:26:41.043Z,4.83
2018-01-22T19:29:09.462Z,4.81
2018-01-22T19:31:37.887Z,4.91
2018-01-22T19:34:06.354Z,4.91
2018-01-22T19:36:34.750Z,4.92
2018-01-22T19:39:03.200Z,4.92
2018-01-22T19:41:31.692Z,4.92
2018-01-22T19:44:00.089Z,4.93
2018-01-22T19:46:28.507Z,5.00
2018-01-22T19:48:56.969Z,5.00
2018-01-22T19:51:25.394Z,5.01
2018-01-22T19:53:53.817Z,5.00
2018-01-22T19:56:22.247Z,4.98
2018-01-22T19:58:50.665Z,4.98
2018-01-22T20:01:19.057Z,5.03
2018-01-22T20:03:47.496Z,5.09
2018-01-22T20:06:15.922Z,5.11
2018-01-22T20:08:44.314Z,5.20
2018-01-22T20:11:12.746Z,5.18
2018-01-22T20:13:41.199Z,5.21
2018-01-22T20:16:09.596Z,5.23
2018-01-22T20:18:38.068Z,5.14
2018-01-22T20:21:06.550Z,5.24
2018-01-22T20:23:34.954Z,5.24
2018-01-22T20:26:03.424Z,5.28
2018-01-22T20:28:31.813Z,5.32
2018-01-22T20:31:00.247Z,5.30
2018-01-22T20:33:28.712Z,5.35
2018-01-22T20:35:57.138Z,5.34
2018-01-22T20:38:25.593Z,5.40
2018-01-22T20:40:54.122Z,5.39
2018-01-22T20:43:22.522Z,5.36
2018-01-22T20:45:50.909Z,5.30
2018-01-22T20:48:19.357Z,5.33
2018-01-22T20:50:47.787Z,5.39
2018-01-22T20:53:16.182Z,5.41
2018-01-22T20:55:44.612Z,5.43
2018-01-22T20:58:13.039Z,5.46
2018-01-22T21:00:41.481Z,5.47
2018-01-22T21:03:09.956Z,5.52
2018-01-22T21:05:38.377Z,5.53
2018-01-22T21:08:06.803Z,5.53
2018-01-22T21:10:35.272Z,5.52
2018-01-22T21:13:03.665Z,5.58
2018-01-22T21:15:32.066Z,5.49
2018-01-22T21:18:00.506Z,5.57
2018-01-22T21:20:28.908Z,5.57
2018-01-22T21:22:57.327Z,5.58
2018-01-22T21:25:25.793Z,5.60
2018-01-22T21:27:54.208Z,5.61
2018-01-22T21:30:22.609Z,5.61
2018-01-22T21:32:51.059Z,5.60
2018-01-22T21:35:19.453Z,5.64
2018-01-22T21:37:47.847Z,5.55
2018-01-22T21:40:16.337Z,5.60
2018-01-22T21:42:44.755Z,5.67
2018-01-22T21:45:13.138Z,5.64
2018-01-22T21:47:41.558Z,5.64
2018-01-22T21:50:09.949Z,5.67
2018-01-22T21:52:38.363Z,5.66
2018-01-22T21:55:07.133Z,5.68
2018-01-22T21:57:35.573Z,5.75
2018-01-22T22:00:04.059Z,5.65
2018-01-22T22:02:32.499Z,5.70
2018-01-22T22:05:00.914Z,5.69
2018-01-22T22:07:29.349Z,5.70
2018-01-22T22:09:57.805Z,5.68
2018-01-22T22:12:26.226Z,5.71
2018-01-22T22:14:54.617Z,5.75
2018-01-22T22:17:23.969Z,5.72
2018-01-22T22:19:52.399Z,5.72
2018-01-22T22:22:20.840Z,5.74
2018-01-22T22:24:49.307Z,5.72
2018-01-22T22:27:17.713Z,5.75
2018-01-22T22:29:46.113Z,5.79
2018-01-22T22:32:14.551Z,5.79
2018-01-22T22:34:42.942Z,5.81
2018-01-22T22:37:11.335Z,5.81
2018-01-22T22:39:39.882Z,5.83
2018-01-22T22:42:08.309Z,5.83
2018-01-22T22:44:36.743Z,5.85
2018-01-22T22:47:05.241Z,5.75
2018-01-22T22:49:33.670Z,5.79
2018-01-22T22:52:02.078Z,5.73
2018-01-22T22:54:30.526Z,5.78
2018-01-22T22:56:58.946Z,5.79
2018-01-22T22:59:27.352Z,5.81
2018-01-22T23:01:55.813Z,5.86
2018-01-22T23:04:24.239Z,5.80
2018-01-22T23:06:52.645Z,5.75
2018-01-22T23:09:21.106Z,5.72
2018-01-22T23:11:49.533Z,5.75
2018-01-22T23:14:17.952Z,5.71
2018-01-22T23:16:46.427Z,5.69
2018-01-22T23:19:14.882Z,5.70
2018-01-22T23:21:43.312Z,5.70
2018-01-22T23:24:11.895Z,5.75
2018-01-22T23:26:40.285Z,5.73
2018-01-22T23:29:08.711Z,5.79
2018-01-22T23:31:37.169Z,5.74
2018-01-22T23:34:05.558Z,5.74
2018-01-22T23:36:33.964Z,5.68
2018-01-22T23:39:02.469Z,5.74
2018-01-22T23:41:30.889Z,5.77
2018-01-22T23:43:59.285Z,5.77
2018-01-22T23:46:27.732Z,5.73
2018-01-22T23:48:56.172Z,5.70
2018-01-22T23:51:24.603Z,5.68
2018-01-22T23:53:53.059Z,5.67
2018-01-22T23:56:21.484Z,5.72
2018-01-22T23:58:49.887Z,5.71
